Time;durP1;ratioP1;P1;durP2;ratioP2;P2;SDS_P1;SDS_P2;PMS_P1;PMS_P2;Temp;Humidity;BMP_temperature;BMP_pressure;BME280_temperature;BME280_humidity;BME280_pressure;Samples;Min_cycle;Max_cycle;Signal;HPM_P1;HPM_P2
2022/06/16 00:00:42;;;;;;;4.22;3.55;;;18.00;99.90;;;-141.84;48.03;19874.81;5031223;28;20222;-59
2022/06/16 00:03:11;;;;;;;4.20;3.80;;;18.00;99.90;;;-141.84;48.77;19797.59;5030874;28;20824;-59
2022/06/16 00:05:43;;;;;;;4.78;3.20;;;18.00;99.90;;;-141.84;49.41;19777.25;5031583;28;20252;-60
2022/06/16 00:08:16;;;;;;;3.95;3.30;;;17.90;99.90;;;-141.84;49.53;19789.44;5030731;28;20611;-59
2022/06/16 00:11:16;;;;;;;4.28;3.67;;;17.80;99.90;;;-141.84;50.10;19746.78;5031109;28;20240;-59
2022/06/16 00:13:36;;;;;;;4.45;3.60;;;17.70;99.90;;;-141.84;50.17;19730.50;5030587;28;20725;-59
2022/06/16 00:16:07;;;;;;;4.22;3.60;;;17.70;99.90;;;-141.84;50.22;19761.00;5030909;28;20349;-60
2022/06/16 00:18:37;;;;;;;4.40;4.00;;;17.60;99.90;;;-141.84;50.17;19779.28;5030505;28;20222;-59
2022/06/16 00:21:06;;;;;;;3.78;3.47;;;17.60;99.90;;;-141.84;50.57;19720.34;5031236;28;20292;-58
2022/06/16 00:23:35;;;;;;;4.32;3.92;;;17.50;99.90;;;-141.84;51.34;19710.19;5031182;28;20197;-59
2022/06/16 00:26:11;;;;;;;6.18;4.20;;;17.50;99.90;;;-141.84;51.83;19695.97;5030534;28;20245;-60
2022/06/16 00:28:41;;;;;;;4.80;3.88;;;17.40;99.90;;;-141.84;52.16;19708.16;5030595;28;20240;-58
2022/06/16 00:31:13;;;;;;;6.00;3.92;;;17.40;99.90;;;-141.84;52.40;19700.03;5030587;28;20237;-57
2022/06/16 00:33:43;;;;;;;4.30;3.90;;;17.30;99.90;;;-141.84;52.58;19671.56;5030618;28;20225;-57
2022/06/16 00:36:11;;;;;;;7.03;3.67;;;17.30;99.90;;;-141.84;52.72;19669.53;5030461;28;20225;-59
2022/06/16 00:38:40;;;;;;;5.47;4.13;;;17.30;99.90;;;-141.84;53.25;19653.28;5031045;28;20209;-59
2022/06/16 00:41:10;;;;;;;5.70;3.92;;;17.30;99.90;;;-141.84;53.49;19624.84;5029862;28;20710;-59
2022/06/16 00:43:39;;;;;;;5.60;4.32;;;17.20;99.90;;;-141.84;53.48;19612.63;5029898;28;20309;-59
2022/06/16 00:46:13;;;;;;;4.90;4.50;;;17.20;99.90;;;-141.84;53.70;19671.56;5030374;28;20229;-60
2022/06/16 00:48:47;;;;;;;5.10;4.60;;;17.10;99.90;;;-141.84;52.29;19665.47;5030383;28;20224;-58
2022/06/16 00:51:22;;;;;;;4.95;4.10;;;17.20;99.90;;;-141.84;51.99;19669.53;5030298;28;20260;-59
2022/06/16 00:53:51;;;;;;;5.00;3.92;;;17.30;99.90;;;-141.84;52.47;19641.09;5030604;28;20239;-60
2022/06/16 00:56:21;;;;;;;5.03;4.00;;;17.40;99.90;;;-141.84;52.51;19673.59;5029851;28;20228;-58
2022/06/16 00:58:56;;;;;;;4.53;4.07;;;17.30;99.90;;;-141.84;51.42;19710.19;5029676;28;20222;-57
2022/06/16 01:01:27;;;;;;;3.55;3.25;;;17.30;99.90;;;-141.84;51.45;19712.22;5029882;28;20235;-59
2022/06/16 01:06:45;;;;;;;6.82;4.03;;;17.50;99.90;;;-141.84;50.31;19734.56;5029607;28;20236;-58
2022/06/16 01:09:16;;;;;;;4.00;3.70;;;17.50;99.90;;;-141.84;50.59;19736.59;5029724;28;20288;-60
2022/06/16 01:15:16;;;;;;;4.53;4.13;;;17.40;99.90;;;-141.84;51.47;19681.75;5029977;28;20202;-58
2022/06/16 01:18:03;;;;;;;4.97;4.00;;;17.30;99.90;;;-141.84;52.23;19635.00;5030316;28;20600;-57
2022/06/16 01:20:45;;;;;;;5.35;4.30;;;17.10;99.90;;;-141.84;52.94;19616.72;5029972;28;20281;-56
2022/06/16 01:24:06;;;;;;;5.18;4.63;;;17.00;99.90;;;-141.84;52.35;19659.38;5029593;28;20316;-59
2022/06/16 01:27:19;;;;;;;4.95;4.30;;;17.00;99.90;;;-141.84;52.77;19643.13;5029958;28;20253;-57
2022/06/16 01:29:57;;;;;;;7.72;5.10;;;16.90;99.90;;;-141.84;52.75;19628.91;5010010;28;20219;-60
2022/06/16 01:32:40;;;;;;;4.70;4.20;;;16.90;99.90;;;-141.84;53.29;19602.47;5010076;28;20198;-58
2022/06/16 01:35:17;;;;;;;5.75;4.15;;;16.90;99.90;;;-141.84;53.93;19596.38;5027504;28;20244;-59
2022/06/16 01:38:05;;;;;;;4.75;4.32;;;16.80;99.90;;;-141.84;54.03;19604.50;5029390;28;20227;-59
2022/06/16 01:40:41;;;;;;;5.25;3.90;;;16.80;99.90;;;-141.84;53.79;19602.47;5016050;28;20742;-58
2022/06/16 01:43:24;;;;;;;4.50;4.13;;;16.80;99.90;;;-141.84;53.77;19618.75;5009645;28;20233;-60
2022/06/16 01:46:00;;;;;;;4.45;4.05;;;16.80;99.90;;;-141.84;53.86;19580.13;5009646;28;20225;-58
2022/06/16 01:48:31;;;;;;;4.30;3.90;;;16.80;99.90;;;-141.84;54.22;19602.47;5009522;28;20226;-59
2022/06/16 01:51:07;;;;;;;5.82;4.30;;;16.80;99.90;;;-141.84;54.93;19586.22;5009340;28;20199;-58
2022/06/16 01:53:42;;;;;;;5.22;4.32;;;16.70;99.90;;;-141.84;54.05;19616.72;5010183;28;20274;-58
2022/06/16 01:56:19;;;;;;;4.93;4.55;;;16.80;99.90;;;-141.84;53.99;19614.66;5009369;28;20316;-59
2022/06/16 01:58:54;;;;;;;4.70;4.30;;;16.90;99.90;;;-141.84;54.23;19618.75;5009515;28;20257;-58
2022/06/16 02:01:30;;;;;;;5.18;4.65;;;16.90;99.90;;;-141.84;54.37;19649.22;5009543;28;20234;-57
2022/06/16 02:04:06;;;;;;;6.05;4.75;;;17.00;99.90;;;-141.84;55.09;19596.38;5009481;28;20321;-58
2022/06/16 02:06:39;;;;;;;5.22;4.57;;;16.90;99.90;;;-141.84;55.56;19590.28;5009749;28;20301;-59
2022/06/16 02:09:12;;;;;;;4.45;4.05;;;16.90;99.90;;;-141.84;56.56;19574.03;5009948;28;20600;-58
2022/06/16 02:11:44;;;;;;;5.68;4.40;;;16.80;99.90;;;-141.84;56.52;19553.72;5009649;28;20242;-58
2022/06/16 02:14:20;;;;;;;5.20;4.68;;;16.70;99.90;;;-141.84;56.93;19559.81;5009112;28;20243;-60
2022/06/16 02:16:52;;;;;;;5.65;4.70;;;16.70;99.90;;;-141.84;56.35;19537.44;5009454;28;20372;-58
2022/06/16 02:19:23;;;;;;;5.35;4.80;;;16.70;99.90;;;-141.84;56.26;19576.06;5010034;28;20238;-58
2022/06/16 02:21:53;;;;;;;4.65;4.20;;;16.70;99.90;;;-141.84;56.77;19572.00;5013109;28;20586;-58
2022/06/16 02:24:25;;;;;;;4.38;3.97;;;16.70;99.90;;;-141.84;57.48;19525.25;5012883;28;20227;-58
2022/06/16 02:26:58;;;;;;;5.22;4.60;;;16.70;99.90;;;-141.84;57.84;19464.28;5013195;28;20612;-57
2022/06/16 02:29:30;;;;;;;5.28;4.78;;;16.60;99.90;;;-141.84;57.85;19539.47;5032607;28;20285;-59
2022/06/16 02:32:19;;;;;;;5.05;4.55;;;16.60;99.90;;;-141.84;57.88;19496.81;5032758;28;20237;-57
2022/06/16 02:35:00;;;;;;;5.43;4.63;;;16.70;99.90;;;-141.84;57.93;19519.16;5032506;28;20496;-59
2022/06/16 02:37:52;;;;;;;4.72;4.32;;;16.70;99.90;;;-141.84;58.65;19476.47;5032547;28;20226;-57
2022/06/16 02:40:39;;;;;;;5.13;4.63;;;16.60;99.90;;;-141.84;59.27;19472.41;5032777;28;20226;-57
2022/06/16 02:43:36;;;;;;;4.63;4.28;;;16.60;99.90;;;-141.84;59.69;19472.41;5032691;28;20332;-58
2022/06/16 02:46:11;;;;;;;6.68;4.93;;;16.50;99.90;;;-141.84;60.17;19450.06;5032794;28;20232;-57
2022/06/16 02:48:50;;;;;;;5.03;4.50;;;16.40;99.90;;;-141.84;60.23;19421.63;5033171;28;20255;-59
2022/06/16 02:51:29;;;;;;;5.20;4.70;;;16.40;99.90;;;-141.84;60.64;19429.75;5032552;28;20225;-59
2022/06/16 02:54:09;;;;;;;5.93;4.30;;;16.30;99.90;;;-141.84;61.10;19415.50;5032668;28;20198;-56
2022/06/16 02:56:49;;;;;;;5.15;4.65;;;16.30;99.90;;;-141.84;61.45;19431.78;5032754;28;20186;-58
2022/06/16 02:59:24;;;;;;;5.18;4.50;;;16.20;99.90;;;-141.84;61.24;19399.25;5032622;28;20232;-57
2022/06/16 03:02:00;;;;;;;6.07;4.88;;;16.20;99.90;;;-141.84;59.52;19423.66;5032483;28;20281;-60
2022/06/16 03:04:37;;;;;;;5.53;4.80;;;16.20;99.90;;;-141.84;57.39;19484.59;5032539;28;20222;-60
2022/06/16 03:07:05;;;;;;;5.15;4.65;;;16.20;99.90;;;-141.84;57.41;19466.31;5032532;28;20251;-60
2022/06/16 03:09:34;;;;;;;5.03;4.60;;;16.20;99.90;;;-141.84;56.96;19458.19;5032137;28;20225;-59
2022/06/16 03:12:02;;;;;;;5.82;4.53;;;16.10;99.90;;;-141.84;57.00;19472.41;5031682;28;20261;-61
2022/06/16 03:14:30;;;;;;;4.78;4.38;;;16.10;99.90;;;-141.84;56.86;19464.28;5032426;28;20241;-59
2022/06/16 03:16:58;;;;;;;5.30;4.80;;;16.10;99.90;;;-141.84;56.46;19509.00;5031791;28;20249;-60
2022/06/16 03:19:27;;;;;;;4.90;4.43;;;16.10;99.90;;;-141.84;55.78;19539.47;5031612;28;20221;-59
2022/06/16 03:21:57;;;;;;;4.90;4.50;;;16.20;99.90;;;-141.84;55.58;19500.88;5031906;28;20232;-60
2022/06/16 03:24:26;;;;;;;6.15;4.38;;;16.20;99.90;;;-141.84;56.00;19517.13;5032006;28;20225;-61
2022/06/16 03:26:54;;;;;;;6.00;4.97;;;16.20;99.90;;;-141.84;55.43;19537.44;5032242;28;20195;-60
2022/06/16 03:29:23;;;;;;;6.13;5.20;;;16.30;99.90;;;-141.84;54.67;19555.75;5031606;28;20332;-60
2022/06/16 03:31:52;;;;;;;6.70;5.35;;;16.40;99.90;;;-141.84;54.61;19561.84;5031879;28;20226;-60
2022/06/16 03:34:21;;;;;;;7.72;5.03;;;16.30;99.90;;;-141.84;55.33;19511.03;5031609;28;20226;-59
2022/06/16 03:36:49;;;;;;;6.00;5.28;;;16.30;99.90;;;-141.84;55.75;19498.84;5031695;28;20415;-60
2022/06/16 03:39:19;;;;;;;6.32;5.40;;;16.20;99.90;;;-141.84;55.83;19525.25;5031791;28;20320;-60
2022/06/16 03:41:47;;;;;;;9.30;5.60;;;16.20;99.90;;;-141.84;56.29;19515.09;5031637;28;20297;-59
2022/06/16 03:44:15;;;;;;;6.40;5.35;;;16.10;99.90;;;-141.84;56.06;19537.44;5031357;28;20785;-60
2022/06/16 03:46:44;;;;;;;5.95;5.03;;;16.10;99.90;;;-141.84;56.38;19484.59;5031652;28;20737;-60
2022/06/16 03:49:12;;;;;;;6.45;5.10;;;16.10;99.90;;;-141.84;56.39;19492.75;5031562;28;20320;-59
2022/06/16 03:51:40;;;;;;;7.28;5.28;;;16.20;99.90;;;-141.84;56.13;19511.03;5031394;28;20264;-60
2022/06/16 03:54:08;;;;;;;5.55;5.05;;;16.20;99.90;;;-141.84;55.89;19525.25;5031386;28;20217;-59
2022/06/16 03:56:38;;;;;;;6.15;5.32;;;16.20;99.90;;;-141.84;56.15;19509.00;5031639;28;20212;-60
2022/06/16 03:59:06;;;;;;;5.88;5.30;;;16.30;99.90;;;-141.84;56.25;19515.09;5031074;28;20592;-59
2022/06/16 04:01:34;;;;;;;6.57;4.97;;;16.40;99.90;;;-141.84;56.22;19527.28;5031431;28;20233;-58
2022/06/16 04:04:02;;;;;;;8.07;5.18;;;16.40;99.90;;;-141.84;56.58;19541.50;5031276;28;20234;-59
2022/06/16 04:06:33;;;;;;;5.80;5.25;;;16.40;99.90;;;-141.84;56.66;19504.94;5031318;28;20252;-60
2022/06/16 04:09:04;;;;;;;6.97;5.20;;;16.40;99.90;;;-141.84;57.03;19504.94;5030964;28;20281;-60
2022/06/16 04:11:33;;;;;;;6.70;5.38;;;16.40;99.90;;;-141.84;56.55;19500.88;5031136;28;20597;-60
2022/06/16 04:14:07;;;;;;;6.70;5.05;;;16.40;99.90;;;-141.84;56.63;19484.59;5030828;28;20236;-59
2022/06/16 04:16:40;;;;;;;7.72;4.88;;;16.40;99.90;;;-141.84;56.89;19454.13;5030884;28;20237;-60
2022/06/16 04:19:11;;;;;;;6.35;5.15;;;16.40;99.90;;;-141.84;56.92;19535.41;5030983;28;20230;-60
2022/06/16 04:21:41;;;;;;;11.63;5.80;;;16.40;99.90;;;-141.84;56.54;19521.19;5031405;28;20226;-59
2022/06/16 04:24:10;;;;;;;8.07;4.93;;;16.50;99.90;;;-141.84;56.84;19492.75;5030907;28;20202;-59
2022/06/16 04:26:39;;;;;;;9.13;4.60;;;16.50;99.90;;;-141.84;57.02;19502.91;5031303;28;20290;-60
2022/06/16 04:29:12;;;;;;;9.02;5.38;;;16.50;99.90;;;-141.84;56.65;19576.06;5030424;28;20769;-61
2022/06/16 04:31:40;;;;;;;5.53;5.05;;;16.60;99.90;;;-141.84;56.27;19519.16;5030991;28;20232;-62
2022/06/16 04:34:09;;;;;;;8.20;5.50;;;16.70;99.90;;;-141.84;55.57;19553.72;5030765;28;20283;-59
2022/06/16 04:36:38;;;;;;;8.20;5.60;;;16.80;99.90;;;-141.84;55.24;19545.56;5030713;28;20691;-58
2022/06/16 04:39:06;;;;;;;6.15;5.05;;;16.90;99.90;;;-141.84;54.97;19610.59;5030588;28;20350;-59
2022/06/16 04:41:35;;;;;;;5.90;5.25;;;17.00;99.90;;;-141.84;54.46;19600.44;5030219;28;20293;-58
2022/06/16 04:44:03;;;;;;;9.30;5.60;;;17.10;99.90;;;-141.84;55.62;19553.72;5030221;28;20275;-57
2022/06/16 04:46:33;;;;;;;5.50;5.00;;;17.00;99.90;;;-141.84;56.32;19572.00;5030411;28;20240;-57
2022/06/16 04:49:01;;;;;;;9.00;5.05;;;16.90;99.90;;;-141.84;56.13;19561.84;5030190;28;20238;-58
2022/06/16 04:51:29;;;;;;;5.88;5.03;;;17.00;99.90;;;-141.84;55.71;19569.97;5030487;28;20316;-59
2022/06/16 04:53:57;;;;;;;6.18;5.00;;;17.00;99.90;;;-141.84;54.73;19632.97;5030849;28;20206;-62
2022/06/16 04:56:25;;;;;;;6.72;4.97;;;17.20;99.90;;;-141.84;53.73;19673.59;5030688;28;20249;-59
2022/06/16 04:58:53;;;;;;;6.88;4.85;;;17.30;99.90;;;-141.84;53.31;19683.78;5030087;28;20234;-57
2022/06/16 05:01:21;;;;;;;5.90;5.00;;;17.40;99.90;;;-141.84;53.22;19704.09;5030139;28;20240;-60
2022/06/16 05:03:51;;;;;;;7.25;4.70;;;17.60;99.90;;;-141.84;53.29;19706.13;5030315;28;20342;-59
2022/06/16 05:06:20;;;;;;;6.22;4.45;;;17.70;99.90;;;-141.84;52.23;19752.88;5030689;28;20305;-57
2022/06/16 05:08:49;;;;;;;5.30;4.80;;;18.00;99.90;;;-141.84;51.99;19740.69;5030306;28;20240;-58
2022/06/16 05:11:17;;;;;;;5.70;5.03;;;18.10;99.90;;;-141.84;52.03;19720.34;5029778;28;20655;-59
2022/06/16 05:13:45;;;;;;;6.55;5.47;;;18.00;99.90;;;-141.84;52.35;19724.41;5030014;28;20236;-59
2022/06/16 05:16:13;;;;;;;5.90;5.38;;;18.00;99.90;;;-141.84;52.53;19732.53;5029953;28;20802;-58
2022/06/16 05:18:41;;;;;;;7.60;4.70;;;17.90;99.90;;;-141.84;53.12;19716.28;5030762;28;20222;-59
2022/06/16 05:21:14;;;;;;;5.70;4.97;;;17.80;99.90;;;-141.84;53.43;19669.53;5030837;28;20202;-59
2022/06/16 05:23:42;;;;;;;7.68;5.28;;;17.80;99.90;;;-141.84;53.14;19695.97;5030938;28;20734;-58
2022/06/16 05:26:11;;;;;;;6.50;4.70;;;17.70;99.90;;;-141.84;53.73;19665.47;5030420;28;20224;-57
2022/06/16 05:28:40;;;;;;;5.65;4.90;;;17.70;99.90;;;-141.84;53.86;19665.47;5030534;28;20317;-60
2022/06/16 05:31:09;;;;;;;5.97;5.38;;;17.70;99.90;;;-141.84;53.74;19649.22;5030780;28;20232;-58
2022/06/16 05:33:37;;;;;;;6.15;5.47;;;17.70;99.90;;;-141.84;53.43;19681.75;5030593;28;20238;-59
2022/06/16 05:36:08;;;;;;;9.38;5.60;;;17.70;99.90;;;-141.84;54.67;19667.50;5030706;28;20293;-58
2022/06/16 05:38:39;;;;;;;6.20;5.03;;;17.40;99.90;;;-141.84;55.17;19598.41;5030950;28;20236;-59
2022/06/16 05:41:13;;;;;;;6.38;4.80;;;17.30;99.90;;;-141.84;55.65;19602.47;5030380;28;20225;-58
2022/06/16 05:43:42;;;;;;;8.02;5.65;;;17.30;99.90;;;-141.84;55.51;19604.50;5030139;28;20321;-59
2022/06/16 05:46:17;;;;;;;6.65;5.53;;;17.40;99.90;;;-141.84;55.07;19667.50;5030454;28;20253;-57
2022/06/16 05:48:46;;;;;;;6.78;5.30;;;17.40;99.90;;;-141.84;54.69;19675.63;5030376;28;20225;-58
2022/06/16 05:51:16;;;;;;;5.88;4.47;;;17.50;99.90;;;-141.84;54.91;19704.09;5030509;28;20238;-60
2022/06/16 05:53:47;;;;;;;5.80;5.30;;;17.70;99.90;;;-141.84;53.76;19673.59;5031131;28;20283;-58
2022/06/16 05:56:15;;;;;;;5.47;4.47;;;17.80;99.90;;;-141.84;54.00;19677.66;5034103;28;20233;-58
2022/06/16 05:58:43;;;;;;;7.82;5.50;;;17.90;99.90;;;-141.84;53.41;19695.97;5034302;28;20237;-59
2022/06/16 06:01:14;;;;;;;8.35;5.30;;;17.90;99.90;;;-141.84;53.94;19683.78;5034540;28;20226;-59
2022/06/16 06:03:44;;;;;;;6.80;5.13;;;17.90;99.90;;;-141.84;54.33;19663.44;5034303;28;20308;-59
2022/06/16 06:06:12;;;;;;;8.38;5.05;;;17.80;99.90;;;-141.84;54.37;19655.31;5034345;28;20267;-58
2022/06/16 06:17:12;;;;;;;6.35;4.95;;;17.60;99.90;;;-141.84;57.43;19590.28;5014309;28;20309;-59
2022/06/16 06:19:40;;;;;;;8.15;5.60;;;17.60;99.90;;;-141.84;56.41;19655.31;4997159;28;20227;-56
2022/06/16 06:22:13;;;;;;;5.75;5.03;;;17.60;99.90;;;-141.84;58.86;19531.34;5004525;28;20227;-58
2022/06/16 06:24:46;;;;;;;8.65;5.15;;;17.50;99.90;;;-141.84;62.44;19472.41;5004328;28;20229;-58
2022/06/16 06:27:21;;;;;;;8.48;5.70;;;17.40;99.90;;;-141.84;65.72;19393.16;5014321;28;20309;-57
2022/06/16 06:29:50;;;;;;;6.32;5.63;;;17.30;99.90;;;-141.84;66.26;19334.22;5014027;28;20210;-58
2022/06/16 06:32:21;;;;;;;9.30;5.85;;;17.10;99.90;;;-141.84;69.69;19289.53;5011196;28;20246;-58
2022/06/16 06:34:50;;;;;;;7.57;6.88;;;17.00;99.90;;;-141.84;73.99;19228.56;5013537;28;20307;-57
2022/06/16 06:37:22;;;;;;;6.95;6.22;;;16.90;99.90;;;-141.84;75.01;19192.00;4994152;28;20323;-58
2022/06/16 06:39:52;;;;;;;7.32;6.60;;;16.80;99.90;;;-141.84;74.98;19208.25;4994166;28;20219;-58
2022/06/16 06:42:23;;;;;;;10.40;6.10;;;16.80;99.90;;;-141.84;74.56;19200.13;5011250;28;20755;-58
2022/06/16 06:44:52;;;;;;;7.70;6.07;;;16.70;99.90;;;-141.84;75.66;19196.06;5014272;28;20179;-58
2022/06/16 06:47:24;;;;;;;8.82;6.97;;;16.70;99.90;;;-141.84;73.03;19208.25;5013756;28;20317;-57
2022/06/16 06:49:54;;;;;;;6.70;6.05;;;16.70;99.90;;;-141.84;74.34;19187.91;5013630;28;20338;-58
2022/06/16 06:52:22;;;;;;;8.15;6.60;;;16.70;99.90;;;-141.84;76.35;19177.75;5013766;28;20280;-59
2022/06/16 06:54:51;;;;;;;7.35;6.35;;;16.80;99.90;;;-141.84;74.71;19200.13;5002576;28;20814;-58
2022/06/16 06:57:25;;;;;;;6.43;5.82;;;16.80;99.90;;;-141.84;72.38;19259.03;4994164;28;20247;-57
2022/06/16 06:59:55;;;;;;;7.45;5.93;;;17.00;99.90;;;-141.84;71.71;19326.09;4994598;28;20286;-58
2022/06/16 07:02:23;;;;;;;6.30;5.63;;;17.30;99.90;;;-141.84;71.46;19364.72;4993933;28;20237;-58
2022/06/16 07:04:52;;;;;;;8.57;5.97;;;17.70;99.90;;;-141.84;68.12;19423.66;4993244;28;20723;-59
2022/06/16 07:07:25;;;;;;;15.50;6.43;;;18.00;99.90;;;-141.84;63.89;19525.25;4993949;28;20245;-58
2022/06/16 07:09:53;;;;;;;6.07;5.47;;;18.30;99.90;;;-141.84;62.82;19567.94;4994013;28;20247;-58
2022/06/16 07:12:23;;;;;;;7.47;6.72;;;18.60;99.90;;;-141.84;62.70;19594.34;4993778;28;20250;-58
2022/06/16 07:14:52;;;;;;;8.43;6.53;;;18.70;99.90;;;-141.84;61.62;19622.81;4994175;28;20218;-59
2022/06/16 07:17:24;;;;;;;6.82;6.10;;;18.80;99.90;;;-141.84;59.08;19702.06;4994747;28;20322;-59
2022/06/16 07:19:54;;;;;;;8.35;5.90;;;19.00;99.90;;;-141.84;56.35;19791.47;5013149;28;20285;-58
2022/06/16 07:22:23;;;;;;;7.93;5.65;;;19.40;99.90;;;-141.84;53.82;19935.78;5013438;28;20230;-58
2022/06/16 07:24:51;;;;;;;5.55;5.05;;;20.00;99.90;;;-141.84;50.96;20008.94;5013068;28;20798;-59
2022/06/16 07:27:21;;;;;;;8.20;5.63;;;20.40;99.90;;;-141.84;50.98;20055.69;5013180;28;20246;-58
2022/06/16 07:29:50;;;;;;;6.32;5.63;;;20.80;99.90;;;-141.84;48.98;20074.00;5013266;28;20293;-58
2022/06/16 07:32:21;;;;;;;5.13;4.72;;;20.70;99.90;;;-141.84;51.06;19966.28;5012990;28;20336;-58
2022/06/16 07:34:49;;;;;;;5.53;5.00;;;20.70;99.90;;;-141.84;52.15;19919.53;5013013;28;20231;-59
2022/06/16 07:37:19;;;;;;;6.25;4.82;;;20.50;99.90;;;-141.84;51.38;19962.19;5012913;28;20334;-59
2022/06/16 07:39:47;;;;;;;10.68;5.10;;;20.30;99.90;;;-141.84;52.31;19958.13;5012806;28;20252;-59
2022/06/16 07:42:16;;;;;;;5.50;4.88;;;20.40;99.90;;;-141.84;52.44;19976.44;5012612;28;20253;-58
2022/06/16 07:44:45;;;;;;;5.50;5.00;;;20.50;99.90;;;-141.84;49.12;20041.47;5012909;28;20706;-58
2022/06/16 07:47:15;;;;;;;6.07;5.35;;;20.40;99.90;;;-141.84;48.98;20019.13;5012634;28;20241;-57
2022/06/16 07:49:45;;;;;;;6.57;4.88;;;20.30;99.90;;;-141.84;48.76;20010.97;5012711;28;20234;-59
2022/06/16 07:52:13;;;;;;;7.32;5.50;;;20.20;99.90;;;-141.84;49.26;19974.41;5012762;28;20238;-58
2022/06/16 07:54:43;;;;;;;5.97;4.78;;;20.00;99.90;;;-141.84;50.03;19992.69;5012721;28;20292;-58
2022/06/16 07:57:22;;;;;;;5.60;5.00;;;20.00;99.90;;;-141.84;50.80;19976.44;5012626;28;20230;-58
2022/06/16 07:59:58;;;;;;;7.53;5.30;;;20.20;99.90;;;-141.84;48.25;20035.38;5012880;28;20195;-58
2022/06/16 08:02:28;;;;;;;5.00;4.60;;;20.50;99.90;;;-141.84;49.07;20080.09;5013223;28;20234;-58
2022/06/16 08:04:57;;;;;;;5.80;4.63;;;20.60;99.90;;;-141.84;48.58;20118.69;5028647;28;20253;-58
2022/06/16 08:07:25;;;;;;;6.47;4.32;;;20.70;99.90;;;-141.84;46.91;20179.69;5032372;28;20226;-58
2022/06/16 08:09:53;;;;;;;5.70;4.45;;;20.80;99.90;;;-141.84;46.98;20204.06;5032187;28;20309;-58
2022/06/16 08:12:21;;;;;;;5.20;4.70;;;21.00;99.90;;;-141.84;47.13;20161.38;5028760;28;20310;-60
2022/06/16 08:14:49;;;;;;;7.50;5.22;;;21.00;99.90;;;-141.84;46.98;20155.28;5012453;28;20223;-59
2022/06/16 08:17:24;;;;;;;7.57;4.57;;;21.00;99.90;;;-141.84;45.54;20224.41;5011097;28;20233;-59
2022/06/16 08:19:55;;;;;;;6.63;4.90;;;21.00;99.90;;;-141.84;44.99;20185.78;5012070;28;20729;-60
2022/06/16 08:22:24;;;;;;;5.40;4.53;;;21.10;99.90;;;-141.84;45.43;20228.47;5012113;28;20317;-59
2022/06/16 08:24:53;;;;;;;5.15;4.75;;;21.10;99.90;;;-141.84;45.31;20208.13;5012043;28;20226;-58
2022/06/16 08:27:27;;;;;;;5.20;4.70;;;21.10;99.90;;;-141.84;46.26;20208.13;5011890;28;20237;-60
2022/06/16 08:29:56;;;;;;;4.93;4.22;;;21.10;99.90;;;-141.84;46.18;20161.38;5012558;28;20274;-59
2022/06/16 08:32:25;;;;;;;9.23;5.03;;;21.00;99.90;;;-141.84;45.54;20212.19;5012176;28;20301;-59
2022/06/16 08:34:54;;;;;;;5.32;4.60;;;21.10;99.90;;;-141.84;47.37;20130.91;5011624;28;20710;-59
2022/06/16 08:37:24;;;;;;;6.13;5.10;;;20.90;99.90;;;-141.84;47.14;20132.94;5011441;28;20309;-59
2022/06/16 08:39:52;;;;;;;5.00;4.50;;;20.80;99.90;;;-141.84;47.19;20098.38;5011931;28;20230;-57
2022/06/16 08:42:30;;;;;;;5.35;4.85;;;20.70;99.90;;;-141.84;46.43;20124.81;5011363;28;20358;-59
2022/06/16 08:45:06;;;;;;;5.25;4.75;;;20.70;99.90;;;-141.84;47.43;20078.06;5011353;28;20189;-60
2022/06/16 08:47:50;;;;;;;6.15;4.95;;;20.60;99.90;;;-141.84;47.12;20102.44;5011721;28;20293;-59
2022/06/16 08:50:34;;;;;;;5.13;4.63;;;20.60;99.90;;;-141.84;47.25;20108.53;5011251;28;20753;-58
2022/06/16 08:53:21;;;;;;;7.00;4.50;;;20.70;99.90;;;-141.84;48.10;20069.94;5011141;28;20231;-59
2022/06/16 08:55:59;;;;;;;8.80;5.03;;;20.60;99.90;;;-141.84;47.20;20128.88;5010779;28;20753;-59
2022/06/16 08:58:39;;;;;;;6.63;5.00;;;20.60;99.90;;;-141.84;48.13;20010.97;5023419;28;20225;-57
2022/06/16 09:01:17;;;;;;;5.65;4.85;;;20.40;99.90;;;-141.84;47.90;20053.66;5030608;28;20229;-57
2022/06/16 09:03:49;;;;;;;6.57;4.85;;;20.40;99.90;;;-141.84;48.06;20063.81;5030754;28;20575;-60
2022/06/16 09:06:33;;;;;;;6.07;5.25;;;20.30;99.90;;;-141.84;48.03;20027.25;5028231;28;20317;-58
2022/06/16 09:10:14;;;;;;;6.07;5.47;;;20.30;99.90;;;-141.84;48.09;20031.31;5010837;28;20563;-58
2022/06/16 09:12:35;;;;;;;5.72;5.13;;;20.30;99.90;;;-141.84;48.01;20035.38;5010476;28;20237;-59
2022/06/16 09:15:17;;;;;;;6.32;4.57;;;20.30;99.90;;;-141.84;48.43;20035.38;5010605;28;20237;-59
2022/06/16 09:18:08;;;;;;;7.18;4.88;;;20.30;99.90;;;-141.84;47.89;20092.28;5010983;28;20665;-58
2022/06/16 09:20:46;;;;;;;5.45;4.70;;;20.40;99.90;;;-141.84;48.72;20069.94;5030658;28;20678;-59
2022/06/16 09:23:43;;;;;;;7.40;5.00;;;20.50;99.90;;;-141.84;47.98;20098.38;5030100;28;20244;-58
2022/06/16 09:26:21;;;;;;;6.22;4.40;;;20.50;99.90;;;-141.84;48.52;20076.03;5010375;28;20686;-60
2022/06/16 09:29:00;;;;;;;6.32;5.00;;;20.60;99.90;;;-141.84;47.67;20110.56;5009939;28;20305;-58
2022/06/16 09:31:38;;;;;;;5.30;4.80;;;20.80;99.90;;;-141.84;46.06;20226.44;5010355;28;20223;-58
2022/06/16 09:34:16;;;;;;;5.57;4.72;;;20.90;99.90;;;-141.84;45.70;20220.34;5010317;28;20310;-58
2022/06/16 09:36:54;;;;;;;6.22;4.72;;;21.00;99.90;;;-141.84;45.48;20185.78;5010054;28;20320;-59
2022/06/16 09:39:33;;;;;;;5.93;4.78;;;21.20;99.90;;;-141.84;45.40;20244.72;5010587;28;20238;-59
2022/06/16 09:42:36;;;;;;;8.10;5.20;;;21.30;99.90;;;-141.84;45.02;20232.53;5009983;28;20280;-58
2022/06/16 09:45:23;;;;;;;5.43;4.72;;;21.50;99.90;;;-141.84;45.50;20224.41;5010238;28;20203;-58
2022/06/16 09:48:05;;;;;;;6.25;5.30;;;21.50;99.90;;;-141.84;45.51;20228.47;5010759;28;20241;-59
2022/06/16 09:50:45;;;;;;;7.10;5.13;;;21.50;99.90;;;-141.84;45.29;20265.03;5010635;28;20655;-58
2022/06/16 09:53:25;;;;;;;6.82;4.72;;;21.70;99.90;;;-141.84;44.94;20362.63;5028206;28;20320;-58
2022/06/16 09:56:03;;;;;;;6.07;4.93;;;21.80;99.90;;;-141.84;44.53;20364.66;5029694;28;20352;-59
2022/06/16 09:58:41;;;;;;;6.90;4.78;;;22.10;99.90;;;-141.84;43.55;20384.97;5029762;28;20229;-59
2022/06/16 10:01:14;;;;;;;7.65;5.70;;;22.40;99.90;;;-141.84;43.16;20382.94;5030023;28;20316;-59
2022/06/16 10:03:55;;;;;;;6.05;5.43;;;22.50;99.90;;;-141.84;43.83;20336.19;5029790;28;20232;-58
2022/06/16 10:06:37;;;;;;;7.30;4.93;;;22.60;99.90;;;-141.84;44.50;20326.03;5029697;28;20734;-58
2022/06/16 10:09:22;;;;;;;8.63;5.30;;;22.30;99.90;;;-141.84;44.31;20324.00;5029862;28;20193;-58
2022/06/16 10:12:06;;;;;;;5.80;4.90;;;22.30;99.90;;;-141.84;43.85;20334.16;5030493;28;20217;-58
2022/06/16 10:14:44;;;;;;;4.53;4.13;;;22.30;99.90;;;-141.84;44.14;20380.91;5010215;28;20238;-59
2022/06/16 10:17:18;;;;;;;5.70;4.65;;;22.50;99.90;;;-141.84;43.28;20389.03;5009978;28;20972;-60
2022/06/16 10:19:47;;;;;;;6.30;4.40;;;22.60;99.90;;;-141.84;43.16;20405.31;5009882;28;20277;-59
2022/06/16 10:22:19;;;;;;;6.85;4.95;;;22.50;99.90;;;-141.84;43.27;20387.00;5009453;28;20306;-57
2022/06/16 10:24:59;;;;;;;6.25;4.68;;;22.50;99.90;;;-141.84;43.68;20346.34;5009901;28;20309;-58
2022/06/16 10:27:35;;;;;;;5.65;5.13;;;22.40;99.90;;;-141.84;44.04;20295.53;5009724;28;20229;-58
2022/06/16 10:30:08;;;;;;;6.50;4.70;;;22.10;99.90;;;-141.84;44.54;20224.41;5009472;28;20607;-58
2022/06/16 10:32:42;;;;;;;5.70;4.70;;;21.90;99.90;;;-141.84;45.55;20206.09;5010315;28;20194;-60
2022/06/16 10:35:19;;;;;;;5.03;4.00;;;21.70;99.90;;;-141.84;45.53;20210.16;5009725;28;20277;-59
2022/06/16 10:37:53;;;;;;;4.85;4.45;;;21.70;99.90;;;-141.84;43.90;20269.13;5009806;28;20230;-59
2022/06/16 10:40:31;;;;;;;5.03;4.50;;;21.70;99.90;;;-141.84;43.77;20244.72;5011005;28;20249;-58
2022/06/16 10:43:21;;;;;;;6.95;4.45;;;21.80;99.90;;;-141.84;43.85;20281.31;5013134;28;20246;-59
2022/06/16 10:46:00;;;;;;;4.90;4.30;;;21.90;99.90;;;-141.84;43.68;20311.78;5013009;28;20225;-59